createdAt,value
2018-05-17T00:01:15.249Z,99.50
2018-05-17T00:05:18.032Z,99.50
2018-05-17T00:09:20.767Z,99.50
2018-05-17T00:13:23.507Z,99.50
2018-05-17T00:17:27.025Z,99.60
2018-05-17T00:21:30.520Z,99.60
2018-05-17T00:25:33.259Z,99.60
2018-05-17T00:29:36.027Z,99.50
2018-05-17T00:33:39.556Z,99.50
2018-05-17T00:37:42.298Z,99.40
2018-05-17T00:41:45.029Z,99.40
2018-05-17T00:45:48.522Z,99.40
2018-05-17T00:49:51.363Z,99.40
2018-05-17T00:53:54.124Z,99.30
2018-05-17T00:57:56.881Z,99.40
2018-05-17T01:01:59.655Z,99.40
2018-05-17T01:06:02.378Z,99.60
2018-05-17T01:10:05.169Z,99.40
2018-05-17T01:14:07.915Z,99.40
2018-05-17T01:18:10.677Z,99.50
2018-05-17T01:22:13.407Z,99.50
2018-05-17T01:26:16.182Z,99.40
2018-05-17T01:30:19.714Z,99.20
2018-05-17T01:34:22.487Z,99.20
2018-05-17T01:38:26.138Z,99.30
2018-05-17T01:42:28.950Z,99.30
2018-05-17T01:46:32.470Z,99.30
2018-05-17T01:50:35.980Z,99.20
2018-05-17T01:54:39.586Z,99.30
2018-05-17T01:58:43.183Z,99.30
2018-05-17T02:02:45.989Z,99.30
2018-05-17T02:06:48.716Z,99.20
2018-05-17T02:10:52.186Z,99.30
2018-05-17T02:14:54.929Z,99.30
2018-05-17T02:18:57.792Z,99.30
2018-05-17T02:23:00.514Z,99.20
2018-05-17T02:27:04.036Z,99.20
2018-05-17T02:31:06.765Z,99.10
2018-05-17T02:35:09.480Z,99.20
2018-05-17T02:39:12.279Z,99.20
2018-05-17T02:43:15.033Z,99.20
2018-05-17T02:47:17.845Z,99.10
2018-05-17T02:51:20.562Z,99.10
2018-05-17T02:55:23.325Z,99.10
2018-05-17T02:59:26.075Z,99.10
2018-05-17T03:03:28.812Z,99.00
2018-05-17T03:07:31.538Z,99.00
2018-05-17T03:11:34.303Z,99.00
2018-05-17T03:15:37.041Z,99.00
2018-05-17T03:19:39.774Z,99.00
2018-05-17T03:23:42.517Z,99.00
2018-05-17T03:27:45.259Z,99.10
2018-05-17T03:31:47.999Z,99.00
2018-05-17T03:35:50.737Z,99.00
2018-05-17T03:39:53.435Z,99.00
2018-05-17T03:43:56.235Z,99.40
2018-05-17T03:47:58.966Z,99.10
2018-05-17T03:52:01.825Z,99.10
2018-05-17T03:56:04.554Z,99.10
2018-05-17T04:00:08.102Z,99.20
2018-05-17T04:04:22.777Z,99.20
2018-05-17T04:08:25.577Z,99.20
2018-05-17T04:12:29.200Z,99.20
2018-05-17T04:16:31.904Z,99.20
2018-05-17T04:20:35.508Z,99.10
2018-05-17T04:24:39.161Z,99.10
2018-05-17T04:28:41.875Z,99.10
2018-05-17T04:32:45.370Z,99.10
2018-05-17T04:36:48.191Z,99.10
2018-05-17T04:40:51.665Z,99.10
2018-05-17T04:44:54.400Z,99.00
2018-05-17T04:48:57.900Z,99.10
2018-05-17T04:53:00.601Z,99.10
2018-05-17T04:57:04.088Z,99.10
2018-05-17T05:01:06.809Z,99.10
2018-05-17T05:05:09.570Z,99.10
2018-05-17T05:09:12.419Z,99.20
2018-05-17T05:13:16.027Z,99.80
2018-05-17T05:17:18.834Z,99.80
2018-05-17T05:21:23.544Z,99.90
2018-05-17T05:25:28.275Z,99.90
2018-05-17T05:29:31.284Z,99.90
2018-05-17T05:33:35.774Z,99.90
2018-05-17T05:37:39.099Z,99.90
2018-05-17T05:41:41.805Z,99.90
2018-05-17T05:45:44.676Z,99.90
2018-05-17T05:49:47.397Z,99.90
2018-05-17T05:53:50.157Z,99.90
2018-05-17T05:57:53.641Z,99.80
2018-05-17T06:01:56.365Z,99.80
2018-05-17T06:05:59.892Z,99.90
2018-05-17T06:10:02.626Z,99.90
2018-05-17T06:14:05.436Z,99.90
2018-05-17T06:18:08.197Z,99.70
2018-05-17T06:22:10.914Z,99.80
2018-05-17T06:26:13.724Z,99.80
2018-05-17T06:30:16.514Z,99.90
2018-05-17T06:34:19.248Z,99.80
2018-05-17T06:38:22.769Z,99.30
2018-05-17T06:42:26.278Z,98.80
2018-05-17T06:46:30.191Z,97.40
2018-05-17T06:50:32.934Z,97.40
2018-05-17T06:54:35.773Z,97.50
2018-05-17T06:58:38.450Z,97.80
2018-05-17T07:02:41.188Z,96.30
2018-05-17T07:06:44.025Z,97.10
2018-05-17T07:10:46.705Z,95.60
2018-05-17T07:14:49.525Z,93.50
2018-05-17T07:18:52.316Z,94.90
2018-05-17T07:22:55.027Z,94.00
2018-05-17T07:26:57.794Z,94.60
2018-05-17T07:31:00.542Z,91.70
2018-05-17T07:35:03.261Z,90.30
2018-05-17T07:39:06.909Z,87.20
2018-05-17T07:43:09.738Z,86.70
2018-05-17T07:47:12.538Z,84.90
2018-05-17T07:51:15.993Z,80.40
2018-05-17T07:55:19.495Z,81.50
2018-05-17T07:59:22.260Z,80.80
2018-05-17T08:03:25.203Z,76.30
2018-05-17T08:07:28.720Z,70.80
2018-05-17T08:11:32.208Z,69.80
2018-05-17T08:15:34.938Z,69.50
2018-05-17T08:19:37.804Z,64.40
2018-05-17T08:23:40.569Z,65.30
2018-05-17T08:27:44.242Z,62.80
2018-05-17T08:31:47.746Z,61.40
2018-05-17T08:35:50.461Z,61.30
2018-05-17T08:39:53.996Z,57.50
2018-05-17T08:43:56.786Z,57.50
2018-05-17T08:47:59.626Z,59.50
2018-05-17T08:52:03.149Z,53.80
2018-05-17T08:56:05.879Z,54.00
2018-05-17T09:00:09.427Z,56.50
2018-05-17T09:04:12.158Z,56.50
2018-05-17T09:08:14.978Z,51.80
2018-05-17T09:12:17.940Z,56.30
2018-05-17T09:16:20.689Z,51.50
2018-05-17T09:20:24.365Z,55.20
2018-05-17T09:24:27.823Z,53.20
2018-05-17T09:28:30.650Z,53.60
2018-05-17T09:32:33.365Z,52.30
2018-05-17T09:36:36.201Z,52.20
2018-05-17T09:40:39.022Z,50.50
2018-05-17T09:44:42.521Z,49.60
2018-05-17T09:48:46.172Z,52.60
2018-05-17T09:52:48.921Z,52.60
2018-05-17T09:56:51.758Z,59.00
2018-05-17T10:00:54.495Z,59.60
2018-05-17T10:04:57.208Z,54.90
2018-05-17T10:09:00.036Z,60.30
2018-05-17T10:13:02.886Z,56.70
2018-05-17T10:17:05.580Z,49.60
2018-05-17T10:21:08.333Z,46.20
2018-05-17T10:25:11.826Z,43.50
2018-05-17T10:29:15.341Z,39.70
2018-05-17T10:33:18.127Z,39.70
2018-05-17T10:37:20.870Z,40.10
2018-05-17T10:41:23.615Z,40.10
2018-05-17T10:45:26.353Z,41.10
2018-05-17T10:49:29.086Z,39.20
2018-05-17T10:53:31.811Z,36.50
2018-05-17T10:57:34.600Z,39.20
2018-05-17T11:01:37.358Z,40.80
2018-05-17T11:05:41.125Z,38.60
2018-05-17T11:09:43.879Z,39.60
2018-05-17T11:13:46.582Z,40.60
2018-05-17T11:17:49.553Z,38.00
2018-05-17T11:21:54.082Z,40.90
2018-05-17T11:25:57.581Z,41.40
2018-05-17T11:30:01.108Z,38.40
2018-05-17T11:34:03.909Z,38.40
2018-05-17T11:38:07.427Z,34.20
2018-05-17T11:42:11.078Z,38.40
2018-05-17T11:46:13.813Z,38.30
2018-05-17T11:50:16.527Z,40.30
2018-05-17T11:54:20.029Z,38.80
2018-05-17T11:58:22.762Z,38.80
2018-05-17T12:02:25.494Z,39.80
2018-05-17T12:06:28.316Z,45.60
2018-05-17T12:10:31.072Z,39.90
2018-05-17T12:14:33.773Z,42.60
2018-05-17T12:18:36.480Z,41.10
2018-05-17T12:22:39.268Z,39.00
2018-05-17T12:26:42.106Z,38.10
2018-05-17T12:30:44.822Z,38.20
2018-05-17T12:34:48.345Z,39.50
2018-05-17T12:38:51.842Z,40.00
2018-05-17T12:42:55.417Z,44.30
2018-05-17T12:46:58.942Z,38.00
2018-05-17T12:51:02.447Z,37.00
2018-05-17T12:55:05.438Z,37.10
2018-05-17T12:59:08.155Z,40.20
2018-05-17T13:03:10.883Z,45.00
2018-05-17T13:07:14.526Z,42.60
2018-05-17T13:11:17.302Z,42.60
2018-05-17T13:15:20.800Z,40.60
2018-05-17T13:19:23.524Z,40.50
2018-05-17T13:23:26.351Z,42.30
2018-05-17T13:27:29.078Z,40.70
2018-05-17T13:31:31.819Z,42.20
2018-05-17T13:35:34.553Z,35.10
2018-05-17T13:39:37.374Z,31.50
2018-05-17T13:43:40.115Z,29.40
2018-05-17T13:47:42.899Z,30.80
2018-05-17T13:51:46.385Z,30.00
2018-05-17T13:55:49.094Z,30.00
2018-05-17T13:59:51.830Z,30.00
2018-05-17T14:03:54.619Z,30.20
2018-05-17T14:07:57.323Z,31.90
2018-05-17T14:12:00.065Z,32.80
2018-05-17T14:16:03.609Z,35.80
2018-05-17T14:20:07.118Z,39.00
2018-05-17T14:24:10.627Z,40.10
2018-05-17T14:28:13.357Z,40.10
2018-05-17T14:32:16.140Z,39.70
2018-05-17T14:36:19.679Z,41.50
2018-05-17T14:40:22.418Z,41.70
2018-05-17T14:44:25.352Z,42.30
2018-05-17T14:48:29.037Z,40.40
2018-05-17T14:52:31.881Z,40.40
2018-05-17T14:56:34.708Z,45.50
2018-05-17T15:00:37.470Z,44.30
2018-05-17T15:04:40.193Z,40.80
2018-05-17T15:08:43.240Z,43.40
2018-05-17T15:12:46.614Z,47.10
2018-05-17T15:16:49.361Z,46.50
2018-05-17T15:20:52.878Z,47.30
2018-05-17T15:24:56.397Z,46.70
2018-05-17T15:29:00.014Z,44.40
2018-05-17T15:33:02.902Z,44.30
2018-05-17T15:37:06.507Z,47.80
2018-05-17T15:41:09.249Z,47.70
2018-05-17T15:45:11.984Z,45.60
2018-05-17T15:49:14.746Z,44.30
2018-05-17T15:53:17.616Z,46.60
2018-05-17T15:57:21.274Z,53.20
2018-05-17T16:01:23.995Z,53.00
2018-05-17T16:05:26.781Z,51.70
2018-05-17T16:09:30.602Z,52.30
2018-05-17T16:13:33.379Z,52.30
2018-05-17T16:17:36.260Z,55.00
2018-05-17T16:21:39.160Z,59.60
2018-05-17T16:25:41.902Z,59.50
2018-05-17T16:29:45.434Z,61.10
2018-05-17T16:33:48.359Z,61.40
2018-05-17T16:37:51.167Z,64.20
2018-05-17T16:41:54.745Z,65.40
2018-05-17T16:45:57.483Z,65.30
2018-05-17T16:50:00.308Z,69.30
2018-05-17T16:54:03.170Z,69.10
2018-05-17T16:58:05.903Z,67.40
2018-05-17T17:02:08.657Z,71.20
2018-05-17T17:06:12.232Z,68.30
2018-05-17T17:10:15.505Z,68.90
2018-05-17T17:14:18.225Z,67.40
2018-05-17T17:18:21.773Z,67.80
2018-05-17T17:22:24.693Z,67.70
2018-05-17T17:26:28.175Z,68.80
2018-05-17T17:30:30.996Z,68.80
2018-05-17T17:34:33.781Z,68.70
2018-05-17T17:38:36.575Z,68.70
2018-05-17T17:42:39.479Z,67.70
2018-05-17T17:46:42.226Z,72.40
2018-05-17T17:50:44.955Z,73.90
2018-05-17T17:54:47.907Z,74.80
2018-05-17T17:58:52.692Z,78.20
2018-05-17T18:02:55.470Z,78.10
2018-05-17T18:06:58.173Z,80.70
2018-05-17T18:11:01.145Z,78.70
2018-05-17T18:15:04.717Z,82.00
2018-05-17T18:19:08.235Z,83.30
2018-05-17T18:23:11.116Z,83.20
2018-05-17T18:27:13.840Z,83.70
2018-05-17T18:31:16.605Z,83.40
2018-05-17T18:35:19.521Z,85.00
2018-05-17T18:39:22.305Z,84.60
2018-05-17T18:43:25.075Z,84.40
2018-05-17T18:47:27.858Z,86.10
2018-05-17T18:51:31.352Z,87.10
2018-05-17T18:55:34.239Z,87.10
2018-05-17T18:59:37.194Z,87.00
2018-05-17T19:03:40.358Z,87.20
2018-05-17T19:07:43.207Z,87.00
2018-05-17T19:11:45.999Z,86.30
2018-05-17T19:15:48.867Z,87.10
2018-05-17T19:19:51.795Z,86.80
2018-05-17T19:23:54.506Z,89.00
2018-05-17T19:27:57.435Z,90.10
2018-05-17T19:32:00.185Z,90.10
2018-05-17T19:36:03.898Z,90.00
2018-05-17T19:40:07.556Z,91.10
2018-05-17T19:44:10.265Z,91.10
2018-05-17T19:48:13.275Z,90.60
2018-05-17T19:52:16.262Z,90.80
2018-05-17T19:56:18.998Z,91.30
2018-05-17T20:00:21.882Z,91.90
2018-05-17T20:04:24.602Z,91.50
2018-05-17T20:08:28.320Z,92.10
2018-05-17T20:12:31.860Z,92.10
2018-05-17T20:16:34.730Z,92.10
2018-05-17T20:20:38.988Z,92.60
2018-05-17T20:24:41.771Z,92.80
2018-05-17T20:28:45.473Z,92.70
2018-05-17T20:32:48.233Z,92.70
2018-05-17T20:36:50.955Z,92.70
2018-05-17T20:40:53.780Z,93.10
2018-05-17T20:44:56.589Z,93.40
2018-05-17T20:49:00.268Z,93.50
2018-05-17T20:53:03.163Z,93.80
2018-05-17T20:57:05.857Z,93.70
2018-05-17T21:01:08.659Z,93.70
2018-05-17T21:05:11.508Z,93.70
2018-05-17T21:09:14.486Z,94.30
2018-05-17T21:13:17.982Z,94.20
2018-05-17T21:17:21.568Z,94.60
2018-05-17T21:21:24.284Z,94.60
2018-05-17T21:25:27.055Z,94.60
2018-05-17T21:29:29.822Z,94.80
2018-05-17T21:33:33.316Z,95.20
2018-05-17T21:37:36.839Z,95.30
2018-05-17T21:41:40.334Z,94.90
2018-05-17T21:45:43.131Z,94.90
2018-05-17T21:49:45.923Z,95.40
2018-05-17T21:53:48.702Z,95.50
2018-05-17T21:57:52.359Z,95.90
2018-05-17T22:01:55.830Z,96.50
2018-05-17T22:05:58.627Z,96.20
2018-05-17T22:10:02.266Z,96.20
2018-05-17T22:14:05.047Z,96.20
2018-05-17T22:18:07.772Z,96.20
2018-05-17T22:22:10.544Z,96.20
2018-05-17T22:26:13.280Z,96.20
2018-05-17T22:30:16.814Z,96.30
2018-05-17T22:34:19.593Z,96.20
2018-05-17T22:38:23.061Z,96.30
2018-05-17T22:42:25.984Z,96.30
2018-05-17T22:46:29.472Z,96.20
2018-05-17T22:50:32.276Z,96.20
2018-05-17T22:54:34.993Z,96.30
2018-05-17T22:58:37.937Z,96.30
2018-05-17T23:02:40.654Z,96.10
2018-05-17T23:06:43.465Z,96.20
2018-05-17T23:10:46.231Z,96.40
2018-05-17T23:14:49.063Z,96.30
2018-05-17T23:18:51.773Z,96.40
2018-05-17T23:22:54.653Z,96.30
2018-05-17T23:26:57.380Z,96.30
2018-05-17T23:31:00.278Z,96.30
2018-05-17T23:35:03.114Z,96.30
2018-05-17T23:39:06.013Z,96.50
2018-05-17T23:43:08.898Z,96.80
2018-05-17T23:47:12.486Z,97.30
2018-05-17T23:51:15.312Z,97.30
2018-05-17T23:55:18.895Z,97.30
2018-05-17T23:59:21.713Z,97.20
